createdAt,value
2022-09-30T00:04:37.032Z,90.11
2022-09-30T00:09:38.760Z,90.76
2022-09-30T00:14:40.404Z,91.88
2022-09-30T00:19:42.437Z,92.56
2022-09-30T00:24:44.018Z,92.34
2022-09-30T00:29:45.773Z,94.88
2022-09-30T00:34:47.390Z,93.41
2022-09-30T00:39:49.079Z,92.54
2022-09-30T00:44:54.383Z,92.03
2022-09-30T00:49:59.892Z,91.60
2022-09-30T00:55:05.901Z,91.33
2022-09-30T01:00:08.265Z,90.71
2022-09-30T01:05:11.732Z,91.06
2022-09-30T01:10:13.428Z,90.89
2022-09-30T01:15:15.340Z,90.69
2022-09-30T01:20:27.527Z,90.57
2022-09-30T01:25:55.018Z,90.45
2022-09-30T01:31:24.843Z,90.97
2022-09-30T01:36:46.712Z,90.31
2022-09-30T01:41:54.659Z,90.60
2022-09-30T01:47:08.885Z,90.64
2022-09-30T01:52:23.868Z,90.78
2022-09-30T01:57:31.905Z,90.13
2022-09-30T02:02:41.228Z,91.49
2022-09-30T02:07:49.920Z,91.83
2022-09-30T02:13:03.399Z,92.56
2022-09-30T02:18:22.492Z,92.56
2022-09-30T02:23:29.085Z,92.47
2022-09-30T02:28:30.928Z,92.28
2022-09-30T02:33:38.298Z,91.69
2022-09-30T02:38:46.304Z,92.36
2022-09-30T02:43:49.297Z,92.41
2022-09-30T02:49:08.566Z,92.01
2022-09-30T02:54:15.829Z,91.79
2022-09-30T02:59:18.049Z,93.06
2022-09-30T03:04:24.800Z,93.43
2022-09-30T03:09:27.303Z,92.67
2022-09-30T03:14:54.202Z,92.73
2022-09-30T03:20:07.824Z,92.42
2022-09-30T03:25:27.404Z,92.34
2022-09-30T03:30:32.624Z,92.35
2022-09-30T03:35:43.398Z,92.29
2022-09-30T03:40:57.861Z,92.00
2022-09-30T03:46:27.020Z,92.62
2022-09-30T03:51:30.049Z,92.53
2022-09-30T03:56:33.465Z,92.59
2022-09-30T04:01:35.145Z,92.50
2022-09-30T04:06:37.262Z,92.74
2022-09-30T04:11:38.972Z,92.73
2022-09-30T04:16:40.682Z,93.21
2022-09-30T04:21:42.463Z,92.97
2022-09-30T04:26:44.086Z,93.27
2022-09-30T04:31:45.837Z,93.12
2022-09-30T04:36:47.503Z,93.25
2022-09-30T04:41:49.075Z,93.62
2022-09-30T04:46:51.273Z,94.11
2022-09-30T04:51:52.846Z,93.90
2022-09-30T04:56:54.417Z,94.44
2022-09-30T05:01:56.045Z,94.30
2022-09-30T05:06:57.808Z,94.45
2022-09-30T05:11:59.437Z,95.24
2022-09-30T05:17:02.160Z,94.93
2022-09-30T05:22:03.737Z,94.93
2022-09-30T05:27:05.521Z,95.10
2022-09-30T05:32:08.009Z,95.51
2022-09-30T05:37:09.685Z,95.96
2022-09-30T05:42:13.992Z,95.68
2022-09-30T05:47:15.874Z,95.97
2022-09-30T05:52:17.448Z,95.94
2022-09-30T05:57:19.080Z,95.94
2022-09-30T06:02:21.296Z,95.62
2022-09-30T06:07:23.328Z,95.75
2022-09-30T06:12:28.771Z,95.83
2022-09-30T06:17:30.497Z,95.84
2022-09-30T06:22:36.173Z,95.78
2022-09-30T06:27:38.309Z,95.62
2022-09-30T06:32:40.394Z,95.89
2022-09-30T06:37:42.088Z,95.79
2022-09-30T06:42:43.887Z,96.17
2022-09-30T06:47:57.857Z,95.93
2022-09-30T06:53:02.952Z,96.05
2022-09-30T06:58:13.776Z,95.94
2022-09-30T07:03:26.540Z,95.89
2022-09-30T07:08:31.574Z,95.92
2022-09-30T07:13:33.415Z,96.16
2022-09-30T07:18:35.087Z,96.09
2022-09-30T07:23:36.867Z,96.31
2022-09-30T07:28:39.550Z,96.61
2022-09-30T07:33:41.929Z,97.10
2022-09-30T07:38:43.614Z,96.79
2022-09-30T07:43:46.675Z,96.58
2022-09-30T07:48:51.789Z,96.83
2022-09-30T07:53:56.375Z,96.85
2022-09-30T07:59:01.097Z,96.60
2022-09-30T08:04:06.455Z,96.41
2022-09-30T08:09:09.022Z,96.81
2022-09-30T08:14:19.567Z,96.60
2022-09-30T08:19:23.368Z,96.68
2022-09-30T08:24:26.664Z,96.72
2022-09-30T08:29:53.876Z,96.42
2022-09-30T08:34:50.369Z,96.34
2022-09-30T08:39:51.936Z,96.23
2022-09-30T08:45:00.612Z,96.35
2022-09-30T08:50:17.453Z,96.22
2022-09-30T08:55:24.123Z,96.53
2022-09-30T09:00:26.186Z,96.57
2022-09-30T09:05:49.972Z,96.19
2022-09-30T09:11:41.183Z,96.15
2022-09-30T09:17:15.403Z,96.07
2022-09-30T09:22:21.225Z,95.93
2022-09-30T09:27:32.786Z,96.53
2022-09-30T09:32:35.776Z,95.32
2022-09-30T09:38:09.477Z,95.21
2022-09-30T09:43:23.787Z,94.90
2022-09-30T09:48:29.203Z,95.06
2022-09-30T09:53:33.789Z,94.36
2022-09-30T09:58:35.469Z,94.38
2022-09-30T10:03:38.247Z,94.28
2022-09-30T10:08:54.057Z,93.68
2022-09-30T10:14:00.681Z,93.70
2022-09-30T10:19:19.908Z,93.49
2022-09-30T10:24:31.547Z,93.31
2022-09-30T10:29:35.555Z,93.72
2022-09-30T10:34:40.988Z,93.27
2022-09-30T10:39:44.686Z,93.19
2022-09-30T10:44:51.730Z,92.75
2022-09-30T10:50:11.522Z,92.90
2022-09-30T10:55:19.181Z,92.54
2022-09-30T11:00:26.064Z,92.45
2022-09-30T11:05:31.687Z,91.91
2022-09-30T11:11:11.365Z,91.83
2022-09-30T11:16:30.097Z,91.42
2022-09-30T11:21:42.424Z,90.61
2022-09-30T11:27:14.633Z,90.42
2022-09-30T11:32:40.856Z,90.19
2022-09-30T11:37:51.492Z,89.55
2022-09-30T11:42:57.028Z,89.78
2022-09-30T11:48:16.887Z,89.51
2022-09-30T11:53:24.550Z,89.20
2022-09-30T11:58:41.362Z,88.82
2022-09-30T12:03:55.035Z,88.78
2022-09-30T12:09:03.954Z,87.49
2022-09-30T12:14:16.166Z,87.82
2022-09-30T12:19:29.052Z,87.64
2022-09-30T12:24:47.667Z,86.20
2022-09-30T12:30:15.210Z,86.20
2022-09-30T12:35:54.359Z,86.33
2022-09-30T12:41:02.612Z,86.12
2022-09-30T12:46:04.557Z,86.44
2022-09-30T12:51:07.829Z,86.02
2022-09-30T12:56:13.025Z,85.27
2022-09-30T13:01:16.749Z,85.46
2022-09-30T13:06:21.283Z,85.32
2022-09-30T13:11:36.306Z,84.86
2022-09-30T13:17:10.237Z,83.92
2022-09-30T13:22:20.884Z,83.56
2022-09-30T13:27:37.485Z,84.14
2022-09-30T13:32:41.204Z,83.90
2022-09-30T13:37:42.778Z,83.28
2022-09-30T13:42:51.496Z,83.39
2022-09-30T13:48:12.014Z,83.07
2022-09-30T13:53:21.000Z,81.67
2022-09-30T13:58:34.922Z,80.03
2022-09-30T14:04:17.201Z,78.81
2022-09-30T14:09:19.054Z,80.40
2022-09-30T14:14:39.392Z,78.45
2022-09-30T14:19:58.362Z,76.21
2022-09-30T14:25:01.163Z,79.06
2022-09-30T14:30:11.459Z,79.98
2022-09-30T14:35:23.113Z,78.80
2022-09-30T14:40:30.722Z,78.87
2022-09-30T14:45:35.670Z,76.53
2022-09-30T14:50:46.510Z,78.45
2022-09-30T14:55:49.433Z,78.54
2022-09-30T15:01:00.709Z,79.40
2022-09-30T15:06:02.679Z,79.27
2022-09-30T15:11:04.399Z,79.27
2022-09-30T15:16:22.456Z,80.09
2022-09-30T15:21:27.294Z,79.61
2022-09-30T15:26:29.722Z,79.80
2022-09-30T15:31:32.527Z,80.04
2022-09-30T15:36:37.357Z,80.51
2022-09-30T15:41:41.429Z,81.00
2022-09-30T15:47:02.356Z,81.51
2022-09-30T15:52:40.076Z,81.94
2022-09-30T15:57:49.882Z,82.99
2022-09-30T16:02:52.806Z,83.28
2022-09-30T16:07:54.488Z,84.17
2022-09-30T16:12:56.115Z,84.77
2022-09-30T16:17:57.977Z,85.74
2022-09-30T16:23:02.453Z,86.00
2022-09-30T16:28:12.341Z,86.68
2022-09-30T16:33:15.395Z,86.84
2022-09-30T16:38:18.259Z,87.06
2022-09-30T16:43:19.885Z,87.90
2022-09-30T16:48:21.561Z,88.26
2022-09-30T16:53:23.344Z,88.03
2022-09-30T16:58:25.000Z,88.39
2022-09-30T17:03:27.092Z,88.72
2022-09-30T17:08:28.834Z,89.02
2022-09-30T17:13:30.525Z,89.08
2022-09-30T17:18:32.430Z,89.01
2022-09-30T17:23:34.356Z,89.20
2022-09-30T17:28:36.545Z,89.45
2022-09-30T17:33:40.028Z,89.53
2022-09-30T17:38:41.777Z,90.35
2022-09-30T17:43:45.529Z,91.65
2022-09-30T17:48:47.369Z,91.06
2022-09-30T17:53:49.285Z,91.26
2022-09-30T17:58:51.210Z,91.28
2022-09-30T18:03:53.565Z,91.14
2022-09-30T18:08:55.972Z,91.11
2022-09-30T18:13:59.655Z,91.45
2022-09-30T18:19:03.348Z,91.82
2022-09-30T18:24:06.509Z,92.27
2022-09-30T18:29:08.064Z,92.51
2022-09-30T18:34:13.133Z,92.40
2022-09-30T18:39:15.414Z,93.11
2022-09-30T18:44:17.101Z,93.97
2022-09-30T18:49:18.722Z,94.08
2022-09-30T18:54:20.907Z,93.71
2022-09-30T18:59:24.018Z,93.23
2022-09-30T19:04:25.965Z,93.56
2022-09-30T19:09:28.406Z,93.89
2022-09-30T19:14:30.730Z,93.98
2022-09-30T19:19:36.068Z,94.26
2022-09-30T19:24:37.968Z,94.41
2022-09-30T19:29:40.551Z,94.59
2022-09-30T19:34:42.800Z,94.50
2022-09-30T19:39:46.232Z,94.79
2022-09-30T19:44:48.117Z,94.63
2022-09-30T19:49:49.721Z,94.27
2022-09-30T19:54:52.234Z,94.74
2022-09-30T19:59:53.841Z,94.93
2022-09-30T20:04:55.504Z,94.79
2022-09-30T20:09:57.210Z,94.71
2022-09-30T20:15:17.372Z,94.33
2022-09-30T20:20:38.436Z,94.50
2022-09-30T20:25:41.688Z,94.51
2022-09-30T20:30:45.537Z,94.98
2022-09-30T20:35:48.100Z,95.25
2022-09-30T20:40:58.626Z,95.06
2022-09-30T20:46:02.424Z,95.31
2022-09-30T20:51:10.016Z,96.07
2022-09-30T20:56:15.181Z,96.28
2022-09-30T21:01:19.956Z,96.78
2022-09-30T21:06:26.901Z,97.09
2022-09-30T21:11:28.537Z,96.79
2022-09-30T21:16:31.064Z,97.10
2022-09-30T21:21:33.150Z,96.74
2022-09-30T21:26:35.585Z,97.31
2022-09-30T21:31:38.147Z,98.01
2022-09-30T21:36:40.802Z,98.19
2022-09-30T21:41:44.713Z,97.87
2022-09-30T21:46:48.665Z,98.35
2022-09-30T21:51:53.039Z,99.22
2022-09-30T21:56:54.578Z,100.00
2022-09-30T22:01:56.530Z,99.59
2022-09-30T22:06:58.242Z,100.00
2022-09-30T22:12:08.700Z,100.00
2022-09-30T22:17:10.420Z,100.00
2022-09-30T22:22:12.396Z,100.00
2022-09-30T22:27:14.187Z,100.00
2022-09-30T22:32:15.796Z,100.00
2022-09-30T22:37:36.006Z,100.00
2022-09-30T22:42:37.830Z,100.00
2022-09-30T22:47:39.417Z,100.00
2022-09-30T22:52:41.052Z,100.00
2022-09-30T22:57:43.589Z,100.00
2022-09-30T23:02:45.221Z,100.00
2022-09-30T23:07:47.053Z,100.00
2022-09-30T23:12:51.392Z,100.00
2022-09-30T23:17:53.184Z,100.00
2022-09-30T23:22:54.921Z,100.00
2022-09-30T23:27:56.885Z,100.00
2022-09-30T23:32:58.580Z,100.00
2022-09-30T23:38:00.320Z,100.00
2022-09-30T23:43:02.063Z,100.00
2022-09-30T23:48:04.266Z,100.00
2022-09-30T23:53:06.203Z,100.00
2022-09-30T23:58:08.429Z,100.00
